sensor_id;sensor_type;location;lat;lon;timestamp;P1;durP1;ratioP1;P2;durP2;ratioP2
32451;SDS011;45528;52.102;5.242;2023-07-31T00:00:19;2.8;;;1.7;;
32451;SDS011;45528;52.102;5.242;2023-07-31T00:01:57;3.8;;;1.9;;
32451;SDS011;45528;52.102;5.242;2023-07-31T00:05:10;3.7;;;1.6;;
32451;SDS011;45528;52.102;5.242;2023-07-31T00:06:47;3.2;;;1.5;;
32451;SDS011;45528;52.102;5.242;2023-07-31T00:08:24;2.4;;;1.4;;
32451;SDS011;45528;52.102;5.242;2023-07-31T00:11:38;4.2;;;2.1;;
32451;SDS011;45528;52.102;5.242;2023-07-31T00:13:15;4.7;;;1.9;;
32451;SDS011;45528;52.102;5.242;2023-07-31T00:14:51;3.2;;;1.9;;
32451;SDS011;45528;52.102;5.242;2023-07-31T00:18:05;3.4;;;2.0;;
32451;SDS011;45528;52.102;5.242;2023-07-31T00:19:42;3.1;;;1.8;;
32451;SDS011;45528;52.102;5.242;2023-07-31T00:21:19;5.4;;;2.21;;
32451;SDS011;45528;52.102;5.242;2023-07-31T00:22:56;5.6;;;2.21;;
32451;SDS011;45528;52.102;5.242;2023-07-31T00:26:10;5.7;;;2.1;;
32451;SDS011;45528;52.102;5.242;2023-07-31T00:27:47;4.5;;;2.0;;
32451;SDS011;45528;52.102;5.242;2023-07-31T00:29:23;7.3;;;2.4;;
32451;SDS011;45528;52.102;5.242;2023-07-31T00:32:38;6.3;;;2.7;;
32451;SDS011;45528;52.102;5.242;2023-07-31T00:34:14;6.6;;;2.7;;
32451;SDS011;45528;52.102;5.242;2023-07-31T00:35:51;14.5;;;4.1;;
32451;SDS011;45528;52.102;5.242;2023-07-31T00:37:28;13.5;;;3.3;;
32451;SDS011;45528;52.102;5.242;2023-07-31T00:40:41;10.4;;;3.7;;
32451;SDS011;45528;52.102;5.242;2023-07-31T00:42:18;15.4;;;4.41;;
32451;SDS011;45528;52.102;5.242;2023-07-31T00:43:54;14.2;;;4.2;;
32451;SDS011;45528;52.102;5.242;2023-07-31T00:47:08;21.6;;;4.8;;
32451;SDS011;45528;52.102;5.242;2023-07-31T00:48:45;15.9;;;4.5;;
32451;SDS011;45528;52.102;5.242;2023-07-31T00:50:23;20.9;;;4.91;;
32451;SDS011;45528;52.102;5.242;2023-07-31T00:53:37;16.2;;;4.61;;
32451;SDS011;45528;52.102;5.242;2023-07-31T00:55:14;17.11;;;4.3;;
32451;SDS011;45528;52.102;5.242;2023-07-31T00:56:51;15.2;;;4.5;;
32451;SDS011;45528;52.102;5.242;2023-07-31T00:58:30;15.4;;;4.41;;
32451;SDS011;45528;52.102;5.242;2023-07-31T01:01:46;15.8;;;4.91;;
32451;SDS011;45528;52.102;5.242;2023-07-31T01:03:23;19.5;;;4.5;;
32451;SDS011;45528;52.102;5.242;2023-07-31T01:05:00;14.5;;;4.3;;
32451;SDS011;45528;52.102;5.242;2023-07-31T01:08:30;14.0;;;4.41;;
32451;SDS011;45528;52.102;5.242;2023-07-31T01:10:26;14.4;;;4.1;;
32451;SDS011;45528;52.102;5.242;2023-07-31T01:12:09;18.41;;;3.9;;
32451;SDS011;45528;52.102;5.242;2023-07-31T01:13:50;14.2;;;4.5;;
32451;SDS011;45528;52.102;5.242;2023-07-31T01:15:27;10.3;;;4.2;;
32451;SDS011;45528;52.102;5.242;2023-07-31T01:18:41;14.6;;;4.5;;
32451;SDS011;45528;52.102;5.242;2023-07-31T01:20:18;14.5;;;4.41;;
32451;SDS011;45528;52.102;5.242;2023-07-31T01:22:02;13.0;;;3.9;;
32451;SDS011;45528;52.102;5.242;2023-07-31T01:24:08;13.4;;;3.8;;
32451;SDS011;45528;52.102;5.242;2023-07-31T01:26:23;10.3;;;4.0;;
32451;SDS011;45528;52.102;5.242;2023-07-31T01:28:05;9.0;;;4.0;;
32451;SDS011;45528;52.102;5.242;2023-07-31T01:29:49;13.8;;;4.3;;
32451;SDS011;45528;52.102;5.242;2023-07-31T01:33:14;15.9;;;4.61;;
32451;SDS011;45528;52.102;5.242;2023-07-31T01:34:52;11.7;;;3.4;;
32451;SDS011;45528;52.102;5.242;2023-07-31T01:36:31;18.8;;;4.5;;
32451;SDS011;45528;52.102;5.242;2023-07-31T01:38:08;16.0;;;4.1;;
32451;SDS011;45528;52.102;5.242;2023-07-31T01:41:21;14.0;;;4.1;;
32451;SDS011;45528;52.102;5.242;2023-07-31T01:42:57;13.0;;;4.41;;
32451;SDS011;45528;52.102;5.242;2023-07-31T01:44:34;10.7;;;3.9;;
32451;SDS011;45528;52.102;5.242;2023-07-31T01:47:48;13.2;;;4.0;;
32451;SDS011;45528;52.102;5.242;2023-07-31T01:49:25;11.5;;;4.41;;
32451;SDS011;45528;52.102;5.242;2023-07-31T01:51:01;13.6;;;4.2;;
32451;SDS011;45528;52.102;5.242;2023-07-31T01:54:15;16.2;;;4.8;;
32451;SDS011;45528;52.102;5.242;2023-07-31T01:55:52;10.4;;;4.2;;
32451;SDS011;45528;52.102;5.242;2023-07-31T01:57:28;15.9;;;4.3;;
32451;SDS011;45528;52.102;5.242;2023-07-31T01:59:04;15.5;;;4.1;;
32451;SDS011;45528;52.102;5.242;2023-07-31T02:02:18;14.9;;;4.2;;
32451;SDS011;45528;52.102;5.242;2023-07-31T02:03:55;13.3;;;4.1;;
32451;SDS011;45528;52.102;5.242;2023-07-31T02:05:32;11.7;;;2.9;;
32451;SDS011;45528;52.102;5.242;2023-07-31T02:08:45;9.81;;;3.6;;
32451;SDS011;45528;52.102;5.242;2023-07-31T02:10:23;11.8;;;3.6;;
32451;SDS011;45528;52.102;5.242;2023-07-31T02:12:01;12.9;;;3.7;;
32451;SDS011;45528;52.102;5.242;2023-07-31T02:15:13;12.9;;;3.7;;
32451;SDS011;45528;52.102;5.242;2023-07-31T02:16:50;10.8;;;4.2;;
32451;SDS011;45528;52.102;5.242;2023-07-31T02:18:26;8.71;;;3.1;;
32451;SDS011;45528;52.102;5.242;2023-07-31T02:20:04;8.6;;;3.4;;
32451;SDS011;45528;52.102;5.242;2023-07-31T02:23:18;8.9;;;3.3;;
32451;SDS011;45528;52.102;5.242;2023-07-31T02:24:55;10.21;;;3.3;;
32451;SDS011;45528;52.102;5.242;2023-07-31T02:26:31;13.7;;;3.9;;
32451;SDS011;45528;52.102;5.242;2023-07-31T02:29:45;12.3;;;3.8;;
32451;SDS011;45528;52.102;5.242;2023-07-31T02:31:21;8.9;;;3.7;;
32451;SDS011;45528;52.102;5.242;2023-07-31T02:32:58;7.9;;;3.3;;
32451;SDS011;45528;52.102;5.242;2023-07-31T02:34:35;9.9;;;3.5;;
32451;SDS011;45528;52.102;5.242;2023-07-31T02:37:48;11.9;;;3.9;;
32451;SDS011;45528;52.102;5.242;2023-07-31T02:39:26;11.2;;;3.4;;
32451;SDS011;45528;52.102;5.242;2023-07-31T02:41:03;12.1;;;3.6;;
32451;SDS011;45528;52.102;5.242;2023-07-31T02:44:16;17.5;;;4.2;;
32451;SDS011;45528;52.102;5.242;2023-07-31T02:45:52;9.71;;;3.7;;
32451;SDS011;45528;52.102;5.242;2023-07-31T02:47:29;10.6;;;3.9;;
32451;SDS011;45528;52.102;5.242;2023-07-31T02:50:42;12.7;;;3.9;;
32451;SDS011;45528;52.102;5.242;2023-07-31T02:52:18;9.1;;;4.0;;
32451;SDS011;45528;52.102;5.242;2023-07-31T02:53:55;13.7;;;3.8;;
32451;SDS011;45528;52.102;5.242;2023-07-31T02:55:31;14.4;;;4.41;;
32451;SDS011;45528;52.102;5.242;2023-07-31T02:58:45;19.41;;;4.61;;
32451;SDS011;45528;52.102;5.242;2023-07-31T03:00:21;10.9;;;3.8;;
32451;SDS011;45528;52.102;5.242;2023-07-31T03:01:58;12.6;;;4.0;;
32451;SDS011;45528;52.102;5.242;2023-07-31T03:05:12;13.8;;;4.41;;
32451;SDS011;45528;52.102;5.242;2023-07-31T03:06:49;15.1;;;5.6;;
32451;SDS011;45528;52.102;5.242;2023-07-31T03:08:26;15.3;;;4.8;;
32451;SDS011;45528;52.102;5.242;2023-07-31T03:11:40;15.5;;;4.41;;
32451;SDS011;45528;52.102;5.242;2023-07-31T03:13:17;14.5;;;4.5;;
32451;SDS011;45528;52.102;5.242;2023-07-31T03:14:54;12.7;;;4.61;;
32451;SDS011;45528;52.102;5.242;2023-07-31T03:16:31;14.5;;;4.3;;
32451;SDS011;45528;52.102;5.242;2023-07-31T03:19:44;9.5;;;3.8;;
32451;SDS011;45528;52.102;5.242;2023-07-31T03:21:21;19.61;;;4.3;;
32451;SDS011;45528;52.102;5.242;2023-07-31T03:22:58;17.8;;;5.2;;
32451;SDS011;45528;52.102;5.242;2023-07-31T03:26:11;13.9;;;4.7;;
32451;SDS011;45528;52.102;5.242;2023-07-31T03:27:48;13.9;;;4.7;;
32451;SDS011;45528;52.102;5.242;2023-07-31T03:29:25;14.3;;;5.5;;
32451;SDS011;45528;52.102;5.242;2023-07-31T03:32:38;16.8;;;5.0;;
32451;SDS011;45528;52.102;5.242;2023-07-31T03:34:15;12.1;;;5.11;;
32451;SDS011;45528;52.102;5.242;2023-07-31T03:35:51;18.7;;;4.8;;
32451;SDS011;45528;52.102;5.242;2023-07-31T03:37:29;18.2;;;4.8;;
32451;SDS011;45528;52.102;5.242;2023-07-31T03:40:42;16.4;;;5.4;;
32451;SDS011;45528;52.102;5.242;2023-07-31T03:42:19;14.1;;;4.91;;
32451;SDS011;45528;52.102;5.242;2023-07-31T03:43:56;10.7;;;4.2;;
32451;SDS011;45528;52.102;5.242;2023-07-31T03:47:11;15.7;;;5.3;;
32451;SDS011;45528;52.102;5.242;2023-07-31T03:48:47;13.9;;;4.5;;
32451;SDS011;45528;52.102;5.242;2023-07-31T03:50:24;15.5;;;4.8;;
32451;SDS011;45528;52.102;5.242;2023-07-31T03:52:00;19.8;;;5.2;;
32451;SDS011;45528;52.102;5.242;2023-07-31T03:55:14;15.8;;;4.7;;
32451;SDS011;45528;52.102;5.242;2023-07-31T03:56:51;13.3;;;4.3;;
32451;SDS011;45528;52.102;5.242;2023-07-31T03:58:27;12.5;;;4.8;;
32451;SDS011;45528;52.102;5.242;2023-07-31T04:01:43;12.3;;;4.3;;
32451;SDS011;45528;52.102;5.242;2023-07-31T04:03:19;18.3;;;5.4;;
32451;SDS011;45528;52.102;5.242;2023-07-31T04:04:56;15.6;;;4.8;;
32451;SDS011;45528;52.102;5.242;2023-07-31T04:08:09;14.4;;;5.11;;
32451;SDS011;45528;52.102;5.242;2023-07-31T04:09:46;12.0;;;4.8;;
32451;SDS011;45528;52.102;5.242;2023-07-31T04:11:23;17.11;;;5.0;;
32451;SDS011;45528;52.102;5.242;2023-07-31T04:13:00;16.5;;;5.7;;
32451;SDS011;45528;52.102;5.242;2023-07-31T04:16:13;14.3;;;4.8;;
32451;SDS011;45528;52.102;5.242;2023-07-31T04:17:50;13.2;;;5.0;;
32451;SDS011;45528;52.102;5.242;2023-07-31T04:19:26;14.0;;;4.7;;
32451;SDS011;45528;52.102;5.242;2023-07-31T04:22:40;19.2;;;5.0;;
32451;SDS011;45528;52.102;5.242;2023-07-31T04:24:17;15.1;;;5.11;;
32451;SDS011;45528;52.102;5.242;2023-07-31T04:25:54;13.8;;;4.0;;
32451;SDS011;45528;52.102;5.242;2023-07-31T04:29:07;11.4;;;4.41;;
32451;SDS011;45528;52.102;5.242;2023-07-31T04:30:45;10.21;;;4.8;;
32451;SDS011;45528;52.102;5.242;2023-07-31T04:32:23;11.5;;;4.5;;
32451;SDS011;45528;52.102;5.242;2023-07-31T04:33:59;12.2;;;4.8;;
32451;SDS011;45528;52.102;5.242;2023-07-31T04:37:12;10.5;;;4.41;;
32451;SDS011;45528;52.102;5.242;2023-07-31T04:38:49;12.9;;;4.2;;
32451;SDS011;45528;52.102;5.242;2023-07-31T04:40:27;15.1;;;4.2;;
32451;SDS011;45528;52.102;5.242;2023-07-31T04:43:40;9.31;;;3.8;;
32451;SDS011;45528;52.102;5.242;2023-07-31T04:45:17;12.6;;;4.0;;
32451;SDS011;45528;52.102;5.242;2023-07-31T04:46:54;10.7;;;3.9;;
32451;SDS011;45528;52.102;5.242;2023-07-31T04:48:31;16.4;;;4.0;;
32451;SDS011;45528;52.102;5.242;2023-07-31T04:51:45;10.0;;;3.7;;
32451;SDS011;45528;52.102;5.242;2023-07-31T04:53:21;9.71;;;4.0;;
32451;SDS011;45528;52.102;5.242;2023-07-31T04:54:58;8.6;;;4.1;;
32451;SDS011;45528;52.102;5.242;2023-07-31T04:58:12;10.7;;;4.2;;
32451;SDS011;45528;52.102;5.242;2023-07-31T04:59:49;8.6;;;3.5;;
32451;SDS011;45528;52.102;5.242;2023-07-31T05:01:25;9.5;;;3.9;;
32451;SDS011;45528;52.102;5.242;2023-07-31T05:04:38;8.9;;;3.6;;
32451;SDS011;45528;52.102;5.242;2023-07-31T05:06:15;9.1;;;3.7;;
32451;SDS011;45528;52.102;5.242;2023-07-31T05:07:53;11.7;;;4.0;;
32451;SDS011;45528;52.102;5.242;2023-07-31T05:09:30;11.2;;;4.2;;
32451;SDS011;45528;52.102;5.242;2023-07-31T05:12:44;10.4;;;3.9;;
32451;SDS011;45528;52.102;5.242;2023-07-31T05:14:21;11.3;;;3.2;;
32451;SDS011;45528;52.102;5.242;2023-07-31T05:15:58;11.9;;;3.9;;
32451;SDS011;45528;52.102;5.242;2023-07-31T05:19:12;10.8;;;3.5;;
32451;SDS011;45528;52.102;5.242;2023-07-31T05:20:49;6.4;;;3.1;;
32451;SDS011;45528;52.102;5.242;2023-07-31T05:22:26;6.1;;;2.8;;
32451;SDS011;45528;52.102;5.242;2023-07-31T05:24:04;7.8;;;2.9;;
32451;SDS011;45528;52.102;5.242;2023-07-31T05:27:18;6.5;;;2.5;;
32451;SDS011;45528;52.102;5.242;2023-07-31T05:28:55;9.5;;;2.8;;
32451;SDS011;45528;52.102;5.242;2023-07-31T05:30:31;6.7;;;2.7;;
32451;SDS011;45528;52.102;5.242;2023-07-31T05:33:45;6.5;;;2.7;;
32451;SDS011;45528;52.102;5.242;2023-07-31T05:35:21;8.0;;;3.0;;
32451;SDS011;45528;52.102;5.242;2023-07-31T05:36:57;7.2;;;2.9;;
32451;SDS011;45528;52.102;5.242;2023-07-31T05:40:11;6.1;;;2.31;;
32451;SDS011;45528;52.102;5.242;2023-07-31T05:41:49;5.4;;;2.31;;
32451;SDS011;45528;52.102;5.242;2023-07-31T05:43:26;5.4;;;2.31;;
32451;SDS011;45528;52.102;5.242;2023-07-31T05:45:03;6.9;;;2.5;;
32451;SDS011;45528;52.102;5.242;2023-07-31T05:48:18;4.91;;;2.21;;
32451;SDS011;45528;52.102;5.242;2023-07-31T05:49:54;6.8;;;2.21;;
32451;SDS011;45528;52.102;5.242;2023-07-31T05:51:31;7.9;;;2.4;;
32451;SDS011;45528;52.102;5.242;2023-07-31T05:54:45;7.1;;;2.5;;
32451;SDS011;45528;52.102;5.242;2023-07-31T05:56:22;9.21;;;2.9;;
32451;SDS011;45528;52.102;5.242;2023-07-31T05:57:59;8.5;;;2.8;;
32451;SDS011;45528;52.102;5.242;2023-07-31T05:59:36;7.2;;;2.8;;
32451;SDS011;45528;52.102;5.242;2023-07-31T06:02:49;8.5;;;3.1;;
32451;SDS011;45528;52.102;5.242;2023-07-31T06:04:26;6.4;;;2.9;;
32451;SDS011;45528;52.102;5.242;2023-07-31T06:06:02;6.1;;;2.5;;
32451;SDS011;45528;52.102;5.242;2023-07-31T06:09:17;7.4;;;2.9;;
32451;SDS011;45528;52.102;5.242;2023-07-31T06:10:53;9.0;;;2.8;;
32451;SDS011;45528;52.102;5.242;2023-07-31T06:12:29;6.5;;;3.1;;
32451;SDS011;45528;52.102;5.242;2023-07-31T06:15:42;5.5;;;2.9;;
32451;SDS011;45528;52.102;5.242;2023-07-31T06:17:19;7.2;;;3.0;;
32451;SDS011;45528;52.102;5.242;2023-07-31T06:18:56;7.6;;;3.2;;
32451;SDS011;45528;52.102;5.242;2023-07-31T06:20:34;6.3;;;2.8;;
32451;SDS011;45528;52.102;5.242;2023-07-31T06:23:47;5.5;;;2.8;;
32451;SDS011;45528;52.102;5.242;2023-07-31T06:25:24;5.2;;;3.0;;
32451;SDS011;45528;52.102;5.242;2023-07-31T06:27:01;8.5;;;2.7;;
32451;SDS011;45528;52.102;5.242;2023-07-31T06:30:15;7.5;;;2.8;;
32451;SDS011;45528;52.102;5.242;2023-07-31T06:31:52;7.6;;;2.7;;
32451;SDS011;45528;52.102;5.242;2023-07-31T06:33:29;8.4;;;2.8;;
32451;SDS011;45528;52.102;5.242;2023-07-31T06:36:43;7.2;;;3.0;;
32451;SDS011;45528;52.102;5.242;2023-07-31T06:38:21;5.2;;;2.7;;
32451;SDS011;45528;52.102;5.242;2023-07-31T06:40:00;4.2;;;2.1;;
32451;SDS011;45528;52.102;5.242;2023-07-31T06:41:38;4.7;;;2.1;;
32451;SDS011;45528;52.102;5.242;2023-07-31T06:44:52;5.5;;;2.31;;
32451;SDS011;45528;52.102;5.242;2023-07-31T06:46:29;4.61;;;2.1;;
32451;SDS011;45528;52.102;5.242;2023-07-31T06:48:05;6.6;;;2.6;;
32451;SDS011;45528;52.102;5.242;2023-07-31T06:51:19;3.4;;;2.0;;
32451;SDS011;45528;52.102;5.242;2023-07-31T06:52:55;3.2;;;1.9;;
32451;SDS011;45528;52.102;5.242;2023-07-31T06:54:32;4.5;;;2.1;;
32451;SDS011;45528;52.102;5.242;2023-07-31T06:56:08;3.9;;;2.0;;
32451;SDS011;45528;52.102;5.242;2023-07-31T06:59:23;3.6;;;1.9;;
32451;SDS011;45528;52.102;5.242;2023-07-31T07:01:00;4.91;;;2.21;;
32451;SDS011;45528;52.102;5.242;2023-07-31T07:02:37;4.61;;;1.8;;
32451;SDS011;45528;52.102;5.242;2023-07-31T07:05:51;6.0;;;2.4;;
32451;SDS011;45528;52.102;5.242;2023-07-31T07:07:28;7.3;;;2.0;;
32451;SDS011;45528;52.102;5.242;2023-07-31T07:09:05;5.3;;;1.8;;
32451;SDS011;45528;52.102;5.242;2023-07-31T07:12:18;4.3;;;2.1;;
32451;SDS011;45528;52.102;5.242;2023-07-31T07:13:55;5.3;;;2.21;;
32451;SDS011;45528;52.102;5.242;2023-07-31T07:15:32;5.7;;;2.1;;
32451;SDS011;45528;52.102;5.242;2023-07-31T07:17:09;5.2;;;2.1;;
32451;SDS011;45528;52.102;5.242;2023-07-31T07:20:23;3.8;;;1.6;;
32451;SDS011;45528;52.102;5.242;2023-07-31T07:22:00;6.3;;;2.21;;
32451;SDS011;45528;52.102;5.242;2023-07-31T07:23:38;4.41;;;2.0;;
32451;SDS011;45528;52.102;5.242;2023-07-31T07:26:51;4.0;;;2.0;;
32451;SDS011;45528;52.102;5.242;2023-07-31T07:28:28;3.3;;;1.8;;
32451;SDS011;45528;52.102;5.242;2023-07-31T07:30:05;4.0;;;1.8;;
32451;SDS011;45528;52.102;5.242;2023-07-31T07:31:42;1.8;;;1.3;;
32451;SDS011;45528;52.102;5.242;2023-07-31T07:34:57;4.2;;;1.9;;
32451;SDS011;45528;52.102;5.242;2023-07-31T07:36:33;2.7;;;1.6;;
32451;SDS011;45528;52.102;5.242;2023-07-31T07:38:11;2.6;;;1.6;;
32451;SDS011;45528;52.102;5.242;2023-07-31T07:41:25;2.4;;;1.6;;
32451;SDS011;45528;52.102;5.242;2023-07-31T07:43:02;4.5;;;2.0;;
32451;SDS011;45528;52.102;5.242;2023-07-31T07:44:39;3.5;;;1.7;;
32451;SDS011;45528;52.102;5.242;2023-07-31T07:47:52;3.2;;;1.7;;
32451;SDS011;45528;52.102;5.242;2023-07-31T07:49:30;3.4;;;1.5;;
32451;SDS011;45528;52.102;5.242;2023-07-31T07:51:08;3.2;;;1.7;;
32451;SDS011;45528;52.102;5.242;2023-07-31T07:52:45;2.5;;;1.4;;
32451;SDS011;45528;52.102;5.242;2023-07-31T07:55:58;3.1;;;1.3;;
32451;SDS011;45528;52.102;5.242;2023-07-31T07:57:36;2.7;;;1.6;;
32451;SDS011;45528;52.102;5.242;2023-07-31T07:59:12;4.3;;;1.5;;
32451;SDS011;45528;52.102;5.242;2023-07-31T08:02:26;4.3;;;1.6;;
32451;SDS011;45528;52.102;5.242;2023-07-31T08:04:03;2.6;;;1.3;;
32451;SDS011;45528;52.102;5.242;2023-07-31T08:05:40;3.3;;;1.3;;
32451;SDS011;45528;52.102;5.242;2023-07-31T08:07:16;3.0;;;1.4;;
32451;SDS011;45528;52.102;5.242;2023-07-31T08:10:31;3.3;;;1.4;;
32451;SDS011;45528;52.102;5.242;2023-07-31T08:12:08;1.9;;;1.3;;
32451;SDS011;45528;52.102;5.242;2023-07-31T08:13:46;2.4;;;1.11;;
32451;SDS011;45528;52.102;5.242;2023-07-31T08:17:00;2.8;;;1.11;;
32451;SDS011;45528;52.102;5.242;2023-07-31T08:18:37;1.8;;;1.4;;
32451;SDS011;45528;52.102;5.242;2023-07-31T08:20:14;3.1;;;1.2;;
32451;SDS011;45528;52.102;5.242;2023-07-31T08:23:29;3.3;;;1.11;;
32451;SDS011;45528;52.102;5.242;2023-07-31T08:25:05;3.8;;;1.2;;
32451;SDS011;45528;52.102;5.242;2023-07-31T08:26:43;2.31;;;1.3;;
32451;SDS011;45528;52.102;5.242;2023-07-31T08:28:20;1.11;;;0.9;;
32451;SDS011;45528;52.102;5.242;2023-07-31T08:31:34;2.4;;;1.2;;
32451;SDS011;45528;52.102;5.242;2023-07-31T08:33:12;1.8;;;1.2;;
32451;SDS011;45528;52.102;5.242;2023-07-31T08:34:48;1.9;;;1.11;;
32451;SDS011;45528;52.102;5.242;2023-07-31T08:38:02;4.0;;;1.0;;
32451;SDS011;45528;52.102;5.242;2023-07-31T08:39:39;2.4;;;1.0;;
32451;SDS011;45528;52.102;5.242;2023-07-31T08:41:16;1.9;;;0.9;;
32451;SDS011;45528;52.102;5.242;2023-07-31T08:42:54;2.0;;;1.0;;
32451;SDS011;45528;52.102;5.242;2023-07-31T08:46:10;1.7;;;0.7;;
32451;SDS011;45528;52.102;5.242;2023-07-31T08:47:49;1.6;;;1.0;;
32451;SDS011;45528;52.102;5.242;2023-07-31T08:49:26;1.7;;;0.9;;
32451;SDS011;45528;52.102;5.242;2023-07-31T08:52:43;1.4;;;0.9;;
32451;SDS011;45528;52.102;5.242;2023-07-31T08:54:23;2.4;;;1.0;;
32451;SDS011;45528;52.102;5.242;2023-07-31T08:56:00;2.7;;;0.9;;
32451;SDS011;45528;52.102;5.242;2023-07-31T08:57:39;1.3;;;0.8;;
32451;SDS011;45528;52.102;5.242;2023-07-31T09:00:58;1.4;;;1.0;;
32451;SDS011;45528;52.102;5.242;2023-07-31T09:02:41;1.2;;;0.9;;
32451;SDS011;45528;52.102;5.242;2023-07-31T09:04:27;2.1;;;1.11;;
32451;SDS011;45528;52.102;5.242;2023-07-31T09:06:05;1.7;;;0.8;;
32451;SDS011;45528;52.102;5.242;2023-07-31T09:09:23;2.21;;;1.0;;
32451;SDS011;45528;52.102;5.242;2023-07-31T09:10:59;1.6;;;1.0;;
32451;SDS011;45528;52.102;5.242;2023-07-31T09:12:37;1.7;;;1.2;;
32451;SDS011;45528;52.102;5.242;2023-07-31T09:14:15;1.9;;;1.0;;
32451;SDS011;45528;52.102;5.242;2023-07-31T09:17:32;1.6;;;1.0;;
32451;SDS011;45528;52.102;5.242;2023-07-31T09:19:10;2.6;;;1.0;;
32451;SDS011;45528;52.102;5.242;2023-07-31T09:20:47;1.4;;;0.9;;
32451;SDS011;45528;52.102;5.242;2023-07-31T09:22:36;1.8;;;1.0;;
32451;SDS011;45528;52.102;5.242;2023-07-31T09:26:01;1.4;;;1.0;;
32451;SDS011;45528;52.102;5.242;2023-07-31T09:27:45;1.8;;;1.11;;
32451;SDS011;45528;52.102;5.242;2023-07-31T09:29:23;1.7;;;1.2;;
32451;SDS011;45528;52.102;5.242;2023-07-31T09:31:01;2.5;;;1.2;;
32451;SDS011;45528;52.102;5.242;2023-07-31T09:34:14;2.1;;;1.3;;
32451;SDS011;45528;52.102;5.242;2023-07-31T09:35:51;2.5;;;1.2;;
32451;SDS011;45528;52.102;5.242;2023-07-31T09:37:29;2.31;;;1.3;;
32451;SDS011;45528;52.102;5.242;2023-07-31T09:40:46;2.0;;;1.2;;
32451;SDS011;45528;52.102;5.242;2023-07-31T09:42:24;2.4;;;1.3;;
32451;SDS011;45528;52.102;5.242;2023-07-31T09:44:02;2.9;;;1.4;;
32451;SDS011;45528;52.102;5.242;2023-07-31T09:45:40;2.5;;;1.3;;
32451;SDS011;45528;52.102;5.242;2023-07-31T09:49:09;4.61;;;1.6;;
32451;SDS011;45528;52.102;5.242;2023-07-31T09:50:48;3.8;;;1.6;;
32451;SDS011;45528;52.102;5.242;2023-07-31T09:52:25;2.0;;;1.5;;
32451;SDS011;45528;52.102;5.242;2023-07-31T09:54:02;2.9;;;1.5;;
32451;SDS011;45528;52.102;5.242;2023-07-31T09:57:18;2.31;;;1.5;;
32451;SDS011;45528;52.102;5.242;2023-07-31T09:58:58;3.4;;;1.5;;
32451;SDS011;45528;52.102;5.242;2023-07-31T10:00:35;1.9;;;1.3;;
32451;SDS011;45528;52.102;5.242;2023-07-31T10:03:56;1.6;;;1.3;;
32451;SDS011;45528;52.102;5.242;2023-07-31T10:05:35;1.6;;;1.3;;
32451;SDS011;45528;52.102;5.242;2023-07-31T10:07:15;2.21;;;1.3;;
32451;SDS011;45528;52.102;5.242;2023-07-31T10:08:54;3.4;;;1.4;;
32451;SDS011;45528;52.102;5.242;2023-07-31T10:12:12;2.1;;;1.5;;
32451;SDS011;45528;52.102;5.242;2023-07-31T10:13:54;3.7;;;1.7;;
32451;SDS011;45528;52.102;5.242;2023-07-31T10:15:31;3.1;;;1.8;;
32451;SDS011;45528;52.102;5.242;2023-07-31T10:17:09;6.7;;;2.21;;
32451;SDS011;45528;52.102;5.242;2023-07-31T10:20:26;5.11;;;2.31;;
32451;SDS011;45528;52.102;5.242;2023-07-31T10:22:05;3.9;;;2.4;;
32451;SDS011;45528;52.102;5.242;2023-07-31T10:23:43;2.9;;;2.0;;
32451;SDS011;45528;52.102;5.242;2023-07-31T10:25:20;4.3;;;2.5;;
32451;SDS011;45528;52.102;5.242;2023-07-31T10:28:37;4.0;;;2.6;;
32451;SDS011;45528;52.102;5.242;2023-07-31T10:30:15;3.9;;;2.7;;
32451;SDS011;45528;52.102;5.242;2023-07-31T10:31:56;6.0;;;2.9;;
32451;SDS011;45528;52.102;5.242;2023-07-31T10:35:10;5.8;;;2.9;;
32451;SDS011;45528;52.102;5.242;2023-07-31T10:36:48;5.11;;;2.6;;
32451;SDS011;45528;52.102;5.242;2023-07-31T10:38:25;4.3;;;2.5;;
32451;SDS011;45528;52.102;5.242;2023-07-31T10:40:02;6.5;;;2.8;;
32451;SDS011;45528;52.102;5.242;2023-07-31T10:43:24;5.2;;;2.9;;
32451;SDS011;45528;52.102;5.242;2023-07-31T10:45:03;5.9;;;2.9;;
32451;SDS011;45528;52.102;5.242;2023-07-31T10:46:42;6.3;;;3.1;;
32451;SDS011;45528;52.102;5.242;2023-07-31T10:48:21;3.9;;;2.7;;
32451;SDS011;45528;52.102;5.242;2023-07-31T10:52:10;3.8;;;2.7;;
32451;SDS011;45528;52.102;5.242;2023-07-31T10:53:48;3.2;;;2.5;;
32451;SDS011;45528;52.102;5.242;2023-07-31T10:55:26;3.7;;;2.5;;
32451;SDS011;45528;52.102;5.242;2023-07-31T10:57:05;4.61;;;2.5;;
32451;SDS011;45528;52.102;5.242;2023-07-31T10:59:00;4.1;;;2.4;;
32451;SDS011;45528;52.102;5.242;2023-07-31T11:02:24;3.2;;;2.21;;
32451;SDS011;45528;52.102;5.242;2023-07-31T11:04:05;4.1;;;2.4;;
32451;SDS011;45528;52.102;5.242;2023-07-31T11:05:48;2.7;;;1.7;;
32451;SDS011;45528;52.102;5.242;2023-07-31T11:07:26;2.7;;;1.8;;
32451;SDS011;45528;52.102;5.242;2023-07-31T11:09:22;4.3;;;1.4;;
32451;SDS011;45528;52.102;5.242;2023-07-31T11:12:44;1.8;;;1.2;;
32451;SDS011;45528;52.102;5.242;2023-07-31T11:14:21;2.21;;;1.4;;
32451;SDS011;45528;52.102;5.242;2023-07-31T11:15:58;1.9;;;1.3;;
32451;SDS011;45528;52.102;5.242;2023-07-31T11:17:38;1.9;;;1.2;;
32451;SDS011;45528;52.102;5.242;2023-07-31T11:20:57;2.6;;;1.5;;
32451;SDS011;45528;52.102;5.242;2023-07-31T11:22:34;1.5;;;1.4;;
32451;SDS011;45528;52.102;5.242;2023-07-31T11:24:12;2.21;;;1.2;;
32451;SDS011;45528;52.102;5.242;2023-07-31T11:27:27;2.6;;;1.3;;
32451;SDS011;45528;52.102;5.242;2023-07-31T11:29:05;4.0;;;1.4;;
32451;SDS011;45528;52.102;5.242;2023-07-31T11:30:46;1.6;;;1.2;;
32451;SDS011;45528;52.102;5.242;2023-07-31T11:32:23;2.5;;;1.5;;
32451;SDS011;45528;52.102;5.242;2023-07-31T11:35:43;1.7;;;1.2;;
32451;SDS011;45528;52.102;5.242;2023-07-31T11:37:22;2.21;;;1.3;;
32451;SDS011;45528;52.102;5.242;2023-07-31T11:39:05;2.5;;;1.4;;
32451;SDS011;45528;52.102;5.242;2023-07-31T11:40:41;1.6;;;1.4;;
32451;SDS011;45528;52.102;5.242;2023-07-31T11:43:58;2.5;;;1.8;;
32451;SDS011;45528;52.102;5.242;2023-07-31T11:45:36;3.6;;;2.0;;
32451;SDS011;45528;52.102;5.242;2023-07-31T11:47:16;4.3;;;2.0;;
32451;SDS011;45528;52.102;5.242;2023-07-31T11:50:35;2.6;;;1.9;;
32451;SDS011;45528;52.102;5.242;2023-07-31T11:52:13;2.4;;;2.0;;
32451;SDS011;45528;52.102;5.242;2023-07-31T11:53:51;4.7;;;2.4;;
32451;SDS011;45528;52.102;5.242;2023-07-31T11:55:31;4.5;;;2.31;;
32451;SDS011;45528;52.102;5.242;2023-07-31T11:58:45;4.2;;;2.5;;
32451;SDS011;45528;52.102;5.242;2023-07-31T12:00:22;3.9;;;2.6;;
32451;SDS011;45528;52.102;5.242;2023-07-31T12:02:00;3.7;;;2.6;;
32451;SDS011;45528;52.102;5.242;2023-07-31T12:05:14;3.6;;;2.6;;
32451;SDS011;45528;52.102;5.242;2023-07-31T12:06:52;4.5;;;2.7;;
32451;SDS011;45528;52.102;5.242;2023-07-31T12:08:29;2.7;;;2.31;;
32451;SDS011;45528;52.102;5.242;2023-07-31T12:10:07;3.1;;;2.1;;
32451;SDS011;45528;52.102;5.242;2023-07-31T12:13:23;4.0;;;2.1;;
32451;SDS011;45528;52.102;5.242;2023-07-31T12:15:00;4.2;;;2.1;;
32451;SDS011;45528;52.102;5.242;2023-07-31T12:16:37;3.5;;;2.1;;
32451;SDS011;45528;52.102;5.242;2023-07-31T12:19:56;4.3;;;2.0;;
32451;SDS011;45528;52.102;5.242;2023-07-31T12:21:32;3.3;;;1.6;;
32451;SDS011;45528;52.102;5.242;2023-07-31T12:23:13;3.3;;;1.9;;
32451;SDS011;45528;52.102;5.242;2023-07-31T12:24:51;3.1;;;2.0;;
32451;SDS011;45528;52.102;5.242;2023-07-31T12:28:10;5.0;;;1.9;;
32451;SDS011;45528;52.102;5.242;2023-07-31T12:29:47;2.7;;;2.0;;
32451;SDS011;45528;52.102;5.242;2023-07-31T12:31:23;2.0;;;1.5;;
32451;SDS011;45528;52.102;5.242;2023-07-31T12:33:04;2.5;;;1.7;;
32451;SDS011;45528;52.102;5.242;2023-07-31T12:36:21;3.0;;;1.8;;
32451;SDS011;45528;52.102;5.242;2023-07-31T12:38:00;2.31;;;1.7;;
32451;SDS011;45528;52.102;5.242;2023-07-31T12:39:37;3.0;;;1.8;;
32451;SDS011;45528;52.102;5.242;2023-07-31T12:42:51;2.6;;;2.1;;
32451;SDS011;45528;52.102;5.242;2023-07-31T12:44:27;3.2;;;1.8;;
32451;SDS011;45528;52.102;5.242;2023-07-31T12:46:05;3.8;;;1.9;;
32451;SDS011;45528;52.102;5.242;2023-07-31T12:47:43;3.6;;;1.9;;
32451;SDS011;45528;52.102;5.242;2023-07-31T12:50:57;3.3;;;1.8;;
32451;SDS011;45528;52.102;5.242;2023-07-31T12:52:34;3.1;;;2.0;;